createdAt,value
2019-05-20T00:00:36.453Z,13.40
2019-05-20T00:03:06.080Z,13.40
2019-05-20T00:05:35.692Z,13.30
2019-05-20T00:08:05.390Z,13.30
2019-05-20T00:10:34.988Z,13.30
2019-05-20T00:13:04.621Z,13.30
2019-05-20T00:15:34.255Z,13.30
2019-05-20T00:18:03.889Z,13.40
2019-05-20T00:20:33.508Z,13.40
2019-05-20T00:23:03.132Z,13.40
2019-05-20T00:25:32.878Z,13.40
2019-05-20T00:28:02.444Z,13.30
2019-05-20T00:30:32.075Z,13.40
2019-05-20T00:33:01.700Z,13.40
2019-05-20T00:35:31.398Z,13.40
2019-05-20T00:38:01.021Z,13.50
2019-05-20T00:40:30.626Z,13.40
2019-05-20T00:43:00.254Z,13.30
2019-05-20T00:45:29.933Z,13.30
2019-05-20T00:47:59.559Z,13.30
2019-05-20T00:50:29.186Z,13.20
2019-05-20T00:52:59.125Z,13.10
2019-05-20T00:55:32.231Z,13.00
2019-05-20T00:58:01.832Z,12.90
2019-05-20T01:00:32.143Z,13.00
2019-05-20T01:03:01.839Z,13.00
2019-05-20T01:05:31.469Z,13.10
2019-05-20T01:08:01.102Z,13.10
2019-05-20T01:10:30.722Z,13.00
2019-05-20T01:13:00.401Z,13.00
2019-05-20T01:15:30.173Z,13.00
2019-05-20T01:17:59.773Z,13.10
2019-05-20T01:20:29.475Z,13.00
2019-05-20T01:22:59.079Z,13.10
2019-05-20T01:25:28.712Z,13.10
2019-05-20T01:27:58.313Z,13.00
2019-05-20T01:30:28.128Z,13.00
2019-05-20T01:33:10.931Z,13.00
2019-05-20T01:35:29.114Z,13.00
2019-05-20T01:37:58.775Z,12.90
2019-05-20T01:40:28.429Z,13.00
2019-05-20T01:42:58.064Z,13.10
2019-05-20T01:45:27.701Z,13.10
2019-05-20T01:47:57.337Z,13.00
2019-05-20T01:50:26.977Z,13.00
2019-05-20T01:52:56.569Z,12.90
2019-05-20T01:55:26.199Z,13.00
2019-05-20T01:57:55.897Z,13.00
2019-05-20T02:00:25.678Z,13.00
2019-05-20T02:02:55.355Z,13.00
2019-05-20T02:05:25.227Z,13.10
2019-05-20T02:07:54.828Z,13.10
2019-05-20T02:10:24.600Z,12.90
2019-05-20T02:12:54.228Z,12.90
2019-05-20T02:15:40.390Z,12.90
2019-05-20T02:18:10.013Z,12.90
2019-05-20T02:20:39.642Z,12.90
2019-05-20T02:23:15.725Z,13.00
2019-05-20T02:25:47.856Z,13.00
2019-05-20T02:28:17.927Z,13.00
2019-05-20T02:30:47.607Z,13.00
2019-05-20T02:33:17.299Z,13.00
2019-05-20T02:35:46.913Z,13.00
2019-05-20T02:38:16.616Z,13.00
2019-05-20T02:40:46.235Z,13.10
2019-05-20T02:43:15.859Z,13.10
2019-05-20T02:45:45.531Z,13.00
2019-05-20T02:48:15.225Z,13.00
2019-05-20T02:50:44.860Z,13.00
2019-05-20T02:53:14.704Z,12.90
2019-05-20T02:55:44.320Z,12.90
2019-05-20T02:58:13.922Z,12.80
2019-05-20T03:00:43.554Z,12.80
2019-05-20T03:03:13.332Z,12.80
2019-05-20T03:05:42.970Z,12.80
2019-05-20T03:08:12.568Z,12.70
2019-05-20T03:10:42.736Z,12.70
2019-05-20T03:13:12.342Z,12.70
2019-05-20T03:15:41.976Z,12.70
2019-05-20T03:18:11.602Z,12.70
2019-05-20T03:20:41.300Z,12.70
2019-05-20T03:23:10.927Z,12.70
2019-05-20T03:25:40.714Z,12.70
2019-05-20T03:28:12.069Z,12.70
2019-05-20T03:30:41.859Z,12.70
2019-05-20T03:33:11.482Z,12.80
2019-05-20T03:35:41.078Z,12.70
2019-05-20T03:38:10.707Z,12.80
2019-05-20T03:40:40.400Z,12.90
2019-05-20T03:43:10.059Z,12.80
2019-05-20T03:45:39.669Z,12.80
2019-05-20T03:48:09.366Z,12.80
2019-05-20T03:50:39.070Z,12.80
2019-05-20T03:53:08.656Z,12.80
2019-05-20T03:55:38.293Z,12.80
2019-05-20T03:58:07.884Z,12.80
2019-05-20T04:00:48.453Z,12.90
2019-05-20T04:03:18.296Z,12.90
2019-05-20T04:05:47.986Z,12.90
2019-05-20T04:08:17.725Z,12.80
2019-05-20T04:10:47.489Z,12.90
2019-05-20T04:13:17.198Z,12.90
2019-05-20T04:15:46.899Z,13.00
2019-05-20T04:18:16.526Z,13.00
2019-05-20T04:20:46.133Z,13.00
2019-05-20T04:23:15.823Z,13.10
2019-05-20T04:25:45.443Z,13.20
2019-05-20T04:28:15.149Z,13.20
2019-05-20T04:30:44.987Z,13.30
2019-05-20T04:33:14.618Z,13.30
2019-05-20T04:35:44.275Z,13.30
2019-05-20T04:38:13.872Z,13.40
2019-05-20T04:40:43.504Z,13.40
2019-05-20T04:43:13.179Z,13.30
2019-05-20T04:45:43.383Z,13.30
2019-05-20T04:48:14.023Z,13.20
2019-05-20T04:50:43.961Z,13.20
2019-05-20T04:53:13.579Z,13.20
2019-05-20T04:55:43.192Z,13.30
2019-05-20T04:58:12.822Z,13.30
2019-05-20T05:00:52.236Z,13.30
2019-05-20T05:03:22.789Z,13.30
2019-05-20T05:05:52.883Z,13.40
2019-05-20T05:08:23.059Z,13.50
2019-05-20T05:10:53.166Z,13.70
2019-05-20T05:13:24.021Z,13.90
2019-05-20T05:15:53.759Z,14.00
2019-05-20T05:18:23.586Z,14.10
2019-05-20T05:20:53.496Z,14.20
2019-05-20T05:23:23.929Z,14.10
2019-05-20T05:25:53.829Z,14.10
2019-05-20T05:28:23.575Z,14.10
2019-05-20T05:30:53.541Z,14.20
2019-05-20T05:33:23.449Z,14.30
2019-05-20T05:35:53.938Z,14.40
2019-05-20T05:38:24.030Z,14.50
2019-05-20T05:40:53.831Z,14.40
2019-05-20T05:43:23.664Z,14.40
2019-05-20T05:45:53.353Z,14.50
2019-05-20T05:48:23.347Z,14.50
2019-05-20T05:50:53.043Z,14.50
2019-05-20T05:53:22.739Z,14.50
2019-05-20T05:55:52.406Z,14.40
2019-05-20T05:58:22.034Z,14.40
2019-05-20T06:00:51.645Z,14.50
2019-05-20T06:03:21.420Z,14.40
2019-05-20T06:05:51.323Z,14.40
2019-05-20T06:08:20.989Z,14.30
2019-05-20T06:10:50.588Z,14.30
2019-05-20T06:13:20.227Z,14.40
2019-05-20T06:15:49.825Z,14.40
2019-05-20T06:18:19.569Z,14.40
2019-05-20T06:20:49.181Z,14.50
2019-05-20T06:23:18.786Z,14.50
2019-05-20T06:25:48.416Z,14.50
2019-05-20T06:28:18.015Z,14.60
2019-05-20T06:30:48.131Z,14.70
2019-05-20T06:33:18.027Z,14.70
2019-05-20T06:35:47.920Z,14.90
2019-05-20T06:38:19.896Z,14.90
2019-05-20T06:40:50.273Z,14.90
2019-05-20T06:43:19.891Z,14.90
2019-05-20T06:45:49.518Z,14.90
2019-05-20T06:48:19.119Z,14.80
2019-05-20T06:50:48.860Z,14.80
2019-05-20T06:53:18.566Z,14.90
2019-05-20T06:55:48.170Z,14.90
2019-05-20T06:58:17.810Z,15.00
2019-05-20T07:00:47.403Z,15.00
2019-05-20T07:03:17.001Z,15.10
2019-05-20T07:05:46.702Z,15.20
2019-05-20T07:08:16.401Z,15.30
2019-05-20T07:10:46.613Z,15.50
2019-05-20T07:13:16.527Z,15.70
2019-05-20T07:15:46.202Z,15.80
2019-05-20T07:18:15.822Z,15.90
2019-05-20T07:20:45.454Z,16.10
2019-05-20T07:23:15.059Z,16.20
2019-05-20T07:25:44.676Z,16.20
2019-05-20T07:28:14.276Z,16.30
2019-05-20T07:30:43.908Z,16.20
2019-05-20T07:33:13.677Z,16.40
2019-05-20T07:35:43.335Z,16.50
2019-05-20T07:38:12.969Z,16.80
2019-05-20T07:40:42.638Z,17.00
2019-05-20T07:43:12.249Z,17.20
2019-05-20T07:45:42.837Z,17.30
2019-05-20T07:48:12.749Z,17.30
2019-05-20T07:50:43.717Z,17.10
2019-05-20T07:53:15.004Z,17.20
2019-05-20T07:55:58.214Z,17.20
2019-05-20T07:58:33.681Z,17.10
2019-05-20T08:01:03.305Z,17.10
2019-05-20T08:03:32.918Z,17.20
2019-05-20T08:06:02.523Z,17.40
2019-05-20T08:08:32.439Z,17.50
2019-05-20T08:11:02.108Z,17.70
2019-05-20T08:13:31.748Z,17.80
2019-05-20T08:16:01.341Z,17.60
2019-05-20T08:18:31.180Z,17.80
2019-05-20T08:21:00.958Z,17.80
2019-05-20T08:23:30.559Z,17.90
2019-05-20T08:26:00.331Z,18.20
2019-05-20T08:28:30.052Z,18.10
2019-05-20T08:30:59.676Z,17.90
2019-05-20T08:33:29.465Z,18.00
2019-05-20T08:35:59.093Z,18.10
2019-05-20T08:38:28.695Z,18.20
2019-05-20T08:40:58.319Z,18.00
2019-05-20T08:43:27.917Z,17.80
2019-05-20T08:45:57.549Z,17.90
2019-05-20T08:48:27.156Z,17.70
2019-05-20T08:50:57.144Z,17.70
2019-05-20T08:53:26.752Z,17.80
2019-05-20T08:55:56.403Z,18.00
2019-05-20T08:58:26.197Z,18.20
2019-05-20T09:00:55.868Z,18.50
2019-05-20T09:03:25.501Z,18.80
2019-05-20T09:05:55.146Z,18.90
2019-05-20T09:08:24.755Z,18.70
2019-05-20T09:10:54.600Z,18.80
2019-05-20T09:13:24.215Z,19.00
2019-05-20T09:15:53.837Z,19.00
2019-05-20T09:18:23.548Z,19.30
2019-05-20T09:20:53.218Z,19.60
2019-05-20T09:23:22.812Z,19.40
2019-05-20T09:25:52.441Z,19.10
2019-05-20T09:28:22.050Z,18.60
2019-05-20T09:30:52.080Z,18.50
2019-05-20T09:33:22.091Z,18.40
2019-05-20T09:35:51.938Z,18.40
2019-05-20T09:38:21.665Z,18.50
2019-05-20T09:40:51.800Z,18.80
2019-05-20T09:43:21.375Z,19.10
2019-05-20T09:46:05.560Z,19.50
2019-05-20T09:48:25.097Z,19.90
2019-05-20T09:50:54.612Z,19.90
2019-05-20T09:53:24.882Z,19.70
2019-05-20T09:55:54.527Z,19.90
2019-05-20T09:58:24.135Z,19.60
2019-05-20T10:00:53.734Z,19.30
2019-05-20T10:03:23.440Z,19.10
2019-05-20T10:05:53.138Z,19.10
2019-05-20T10:08:37.572Z,19.00
2019-05-20T10:10:54.086Z,19.00
2019-05-20T10:13:23.754Z,18.90
2019-05-20T10:15:53.392Z,18.70
2019-05-20T10:18:36.837Z,18.50
2019-05-20T10:20:54.376Z,18.30
2019-05-20T10:23:23.978Z,18.10
2019-05-20T10:25:53.610Z,18.00
2019-05-20T10:28:23.277Z,17.90
2019-05-20T10:30:52.909Z,18.00
2019-05-20T10:33:22.504Z,18.30
2019-05-20T10:35:52.133Z,18.60
2019-05-20T10:38:21.786Z,18.80
2019-05-20T10:40:51.461Z,19.10
2019-05-20T10:43:21.046Z,19.40
2019-05-20T10:45:50.685Z,19.60
2019-05-20T10:48:20.310Z,19.70
2019-05-20T10:50:49.941Z,19.90
2019-05-20T10:53:19.610Z,20.00
2019-05-20T10:55:49.240Z,20.10
2019-05-20T10:58:18.906Z,20.10
2019-05-20T11:01:01.784Z,20.20
2019-05-20T11:03:19.854Z,20.40
2019-05-20T11:05:49.482Z,20.50
2019-05-20T11:08:19.072Z,20.30
2019-05-20T11:10:48.690Z,20.30
2019-05-20T11:13:18.325Z,20.50
2019-05-20T11:15:48.097Z,20.40
2019-05-20T11:18:17.712Z,20.50
2019-05-20T11:20:47.363Z,20.70
2019-05-20T11:23:16.969Z,20.80
2019-05-20T11:25:46.723Z,20.80
2019-05-20T11:28:16.311Z,20.70
2019-05-20T11:30:46.010Z,20.60
2019-05-20T11:33:15.872Z,20.40
2019-05-20T11:35:45.567Z,20.20
2019-05-20T11:38:15.341Z,20.20
2019-05-20T11:40:45.503Z,20.30
2019-05-20T11:43:15.104Z,20.30
2019-05-20T11:45:44.767Z,20.30
2019-05-20T11:48:14.392Z,20.20
2019-05-20T11:50:44.055Z,20.10
2019-05-20T11:53:13.676Z,20.10
2019-05-20T11:55:43.345Z,20.10
2019-05-20T11:58:16.193Z,20.20
2019-05-20T12:00:44.301Z,20.20
2019-05-20T12:03:13.961Z,20.40
2019-05-20T12:05:43.670Z,20.30
2019-05-20T12:08:13.475Z,20.50
2019-05-20T12:10:43.162Z,20.60
2019-05-20T12:13:12.800Z,20.90
2019-05-20T12:15:42.451Z,21.10
2019-05-20T12:18:12.085Z,21.20
2019-05-20T12:20:41.712Z,21.20
2019-05-20T12:23:11.312Z,21.30
2019-05-20T12:25:40.933Z,21.20
2019-05-20T12:28:12.192Z,20.90
2019-05-20T12:30:41.829Z,20.90
2019-05-20T12:33:19.851Z,20.90
2019-05-20T12:35:43.004Z,20.80
2019-05-20T12:38:12.642Z,20.70
2019-05-20T12:40:42.743Z,20.70
2019-05-20T12:43:12.481Z,20.50
2019-05-20T12:45:42.141Z,20.50
2019-05-20T12:48:11.811Z,20.40
2019-05-20T12:50:41.448Z,20.20
2019-05-20T12:53:11.047Z,20.20
2019-05-20T12:55:40.673Z,20.10
2019-05-20T12:58:10.381Z,20.20
2019-05-20T13:00:39.982Z,20.30
2019-05-20T13:03:09.646Z,20.40
2019-05-20T13:05:39.285Z,20.40
2019-05-20T13:08:08.936Z,20.40
2019-05-20T13:10:38.555Z,20.10
2019-05-20T13:13:08.178Z,19.90
2019-05-20T13:15:37.809Z,19.70
2019-05-20T13:18:07.498Z,19.60
2019-05-20T13:20:37.106Z,19.60
2019-05-20T13:23:09.118Z,19.60
2019-05-20T13:25:38.094Z,19.60
2019-05-20T13:28:07.729Z,19.30
2019-05-20T13:30:37.414Z,19.30
2019-05-20T13:33:07.120Z,19.10
2019-05-20T13:35:36.781Z,18.90
2019-05-20T13:38:06.459Z,18.50
2019-05-20T13:40:46.373Z,18.00
2019-05-20T13:43:07.489Z,17.60
2019-05-20T13:45:37.117Z,17.20
2019-05-20T13:48:07.611Z,17.10
2019-05-20T13:50:37.211Z,17.30
2019-05-20T13:53:06.840Z,17.50
2019-05-20T13:55:36.436Z,17.80
2019-05-20T13:58:06.195Z,18.00
2019-05-20T14:00:35.997Z,18.20
2019-05-20T14:03:05.687Z,18.30
2019-05-20T14:05:35.303Z,18.50
2019-05-20T14:08:05.136Z,18.60
2019-05-20T14:10:34.732Z,18.60
2019-05-20T14:13:04.355Z,18.80
2019-05-20T14:15:34.084Z,18.80
2019-05-20T14:18:03.733Z,19.00
2019-05-20T14:20:33.335Z,19.40
2019-05-20T14:23:02.990Z,19.80
2019-05-20T14:25:32.737Z,19.90
2019-05-20T14:28:02.339Z,20.10
2019-05-20T14:30:31.959Z,20.20
2019-05-20T14:33:01.679Z,20.50
2019-05-20T14:35:31.485Z,20.80
2019-05-20T14:38:01.112Z,20.60
2019-05-20T14:40:30.710Z,20.30
2019-05-20T14:43:00.339Z,20.40
2019-05-20T14:45:29.969Z,20.50
2019-05-20T14:48:01.078Z,20.70
2019-05-20T14:50:30.697Z,20.60
2019-05-20T14:53:00.292Z,20.60
2019-05-20T14:55:30.029Z,20.60
2019-05-20T14:57:59.603Z,20.70
2019-05-20T15:00:29.223Z,20.60
2019-05-20T15:02:58.860Z,20.70
2019-05-20T15:05:28.554Z,20.80
2019-05-20T15:07:58.353Z,20.90
2019-05-20T15:10:28.334Z,21.00
2019-05-20T15:12:57.932Z,21.10
2019-05-20T15:15:27.859Z,21.00
2019-05-20T15:17:57.455Z,21.00
2019-05-20T15:20:27.158Z,20.80
2019-05-20T15:22:56.846Z,20.60
2019-05-20T15:25:26.475Z,20.50
2019-05-20T15:27:56.469Z,20.60
2019-05-20T15:30:26.155Z,20.60
2019-05-20T15:32:55.752Z,20.70
2019-05-20T15:35:25.372Z,20.50
2019-05-20T15:37:55.105Z,20.40
2019-05-20T15:40:24.853Z,20.30
2019-05-20T15:42:54.498Z,20.20
2019-05-20T15:45:24.273Z,20.10
2019-05-20T15:47:53.875Z,19.80
2019-05-20T15:50:23.574Z,19.50
2019-05-20T15:52:53.326Z,19.20
2019-05-20T15:55:23.113Z,19.00
2019-05-20T15:57:52.709Z,19.10
2019-05-20T16:00:22.843Z,19.10
2019-05-20T16:02:52.434Z,19.10
2019-05-20T16:05:22.123Z,19.10
2019-05-20T16:07:51.726Z,19.10
2019-05-20T16:10:21.348Z,19.10
2019-05-20T16:12:50.964Z,19.30
2019-05-20T16:15:20.643Z,19.30
2019-05-20T16:17:50.250Z,19.30
2019-05-20T16:20:20.279Z,19.40
2019-05-20T16:22:49.887Z,19.50
2019-05-20T16:25:19.587Z,19.70
2019-05-20T16:27:49.182Z,19.60
2019-05-20T16:30:19.039Z,19.70
2019-05-20T16:32:48.644Z,19.80
2019-05-20T16:35:18.489Z,19.70
2019-05-20T16:37:48.260Z,19.70
2019-05-20T16:40:18.587Z,19.60
2019-05-20T16:42:48.180Z,19.60
2019-05-20T16:45:18.214Z,19.70
2019-05-20T16:47:47.883Z,19.80
2019-05-20T16:50:18.586Z,19.90
2019-05-20T16:52:48.181Z,19.90
2019-05-20T16:55:18.108Z,19.80
2019-05-20T16:57:47.721Z,19.90
2019-05-20T17:00:30.961Z,19.70
2019-05-20T17:02:49.741Z,19.60
2019-05-20T17:05:19.566Z,19.80
2019-05-20T17:07:49.160Z,19.80
2019-05-20T17:10:19.026Z,19.70
2019-05-20T17:12:48.706Z,19.60
2019-05-20T17:15:18.442Z,19.50
2019-05-20T17:17:48.079Z,19.50
2019-05-20T17:20:18.206Z,19.60
2019-05-20T17:22:47.869Z,19.60
2019-05-20T17:25:17.638Z,19.60
2019-05-20T17:27:47.301Z,19.50
2019-05-20T17:30:17.239Z,19.50
2019-05-20T17:32:46.871Z,19.40
2019-05-20T17:35:16.940Z,19.00
2019-05-20T17:37:46.542Z,18.90
2019-05-20T17:40:17.470Z,18.80
2019-05-20T17:42:47.203Z,18.70
2019-05-20T17:45:17.710Z,18.50
2019-05-20T17:47:47.308Z,18.50
2019-05-20T17:50:17.922Z,18.40
2019-05-20T17:52:47.515Z,18.30
2019-05-20T17:55:17.449Z,18.30
2019-05-20T17:57:47.072Z,18.30
2019-05-20T18:00:19.593Z,18.20
2019-05-20T18:02:49.474Z,18.00
2019-05-20T18:05:19.376Z,17.90
2019-05-20T18:07:49.068Z,17.80
2019-05-20T18:10:20.514Z,17.80
2019-05-20T18:12:50.136Z,17.70
2019-05-20T18:15:19.940Z,17.80
2019-05-20T18:17:49.566Z,17.70
2019-05-20T18:20:19.888Z,17.60
2019-05-20T18:22:49.559Z,17.50
2019-05-20T18:25:19.249Z,17.40
2019-05-20T18:27:48.951Z,17.30
2019-05-20T18:30:19.070Z,17.20
2019-05-20T18:32:48.685Z,17.10
2019-05-20T18:35:18.419Z,17.10
2019-05-20T18:37:48.048Z,17.00
2019-05-20T18:40:17.852Z,16.90
2019-05-20T18:42:47.476Z,16.90
2019-05-20T18:45:17.360Z,16.80
2019-05-20T18:47:46.954Z,16.90
2019-05-20T18:50:17.788Z,16.90
2019-05-20T18:52:47.483Z,16.80
2019-05-20T18:55:17.256Z,16.80
2019-05-20T18:57:46.844Z,16.60
2019-05-20T19:00:18.755Z,16.50
2019-05-20T19:02:48.377Z,16.50
2019-05-20T19:05:18.307Z,16.40
2019-05-20T19:07:48.005Z,16.30
2019-05-20T19:10:17.879Z,16.30
2019-05-20T19:12:47.493Z,16.30
2019-05-20T19:15:17.674Z,16.30
2019-05-20T19:17:47.370Z,16.30
2019-05-20T19:20:17.203Z,16.20
2019-05-20T19:22:46.826Z,16.20
2019-05-20T19:25:16.520Z,16.20
2019-05-20T19:27:46.112Z,16.20
2019-05-20T19:30:16.726Z,16.20
2019-05-20T19:32:46.344Z,16.20
2019-05-20T19:35:16.143Z,16.10
2019-05-20T19:37:45.762Z,16.10
2019-05-20T19:40:15.788Z,16.00
2019-05-20T19:42:45.413Z,16.00
2019-05-20T19:45:15.208Z,16.00
2019-05-20T19:47:44.824Z,16.00
2019-05-20T19:50:14.962Z,15.90
2019-05-20T19:52:44.657Z,15.90
2019-05-20T19:55:18.207Z,15.90
2019-05-20T19:57:45.761Z,15.90
2019-05-20T20:00:15.967Z,15.90
2019-05-20T20:02:45.568Z,15.90
2019-05-20T20:05:15.286Z,15.90
2019-05-20T20:07:44.888Z,15.90
2019-05-20T20:10:14.646Z,15.80
2019-05-20T20:12:44.245Z,15.30
2019-05-20T20:15:20.732Z,14.90
2019-05-20T20:17:50.408Z,14.70
2019-05-20T20:20:20.175Z,14.30
2019-05-20T20:22:49.770Z,14.20
2019-05-20T20:25:19.552Z,13.90
2019-05-20T20:27:49.187Z,13.80
2019-05-20T20:30:18.911Z,13.80
2019-05-20T20:32:48.615Z,13.60
2019-05-20T20:35:18.352Z,13.50
2019-05-20T20:37:47.976Z,13.50
2019-05-20T20:40:17.832Z,13.40
2019-05-20T20:42:47.495Z,13.30
2019-05-20T20:45:17.155Z,13.30
2019-05-20T20:47:46.763Z,13.30
2019-05-20T20:50:16.571Z,13.30
2019-05-20T20:52:47.211Z,13.40
2019-05-20T20:55:16.905Z,13.30
2019-05-20T20:57:46.525Z,13.30
2019-05-20T21:00:16.605Z,13.20
2019-05-20T21:02:53.119Z,13.10
2019-05-20T21:05:17.558Z,13.00
2019-05-20T21:07:47.180Z,12.90
2019-05-20T21:10:17.047Z,12.90
2019-05-20T21:12:46.675Z,12.90
2019-05-20T21:15:16.404Z,12.80
2019-05-20T21:17:46.029Z,12.70
2019-05-20T21:20:15.826Z,12.60
2019-05-20T21:22:45.443Z,12.60
2019-05-20T21:25:15.181Z,12.60
2019-05-20T21:27:44.804Z,12.70
2019-05-20T21:30:14.748Z,12.70
2019-05-20T21:32:44.368Z,12.70
2019-05-20T21:35:13.963Z,12.70
2019-05-20T21:37:43.580Z,12.70
2019-05-20T21:40:13.618Z,12.60
2019-05-20T21:42:43.443Z,12.60
2019-05-20T21:45:13.409Z,12.60
2019-05-20T21:47:44.839Z,12.70
2019-05-20T21:50:14.808Z,12.60
2019-05-20T21:52:44.532Z,12.40
2019-05-20T21:55:14.267Z,12.30
2019-05-20T21:57:43.893Z,12.30
2019-05-20T22:00:15.932Z,12.30
2019-05-20T22:02:45.710Z,12.30
2019-05-20T22:05:15.515Z,12.20
2019-05-20T22:07:45.142Z,12.20
2019-05-20T22:10:15.006Z,12.20
2019-05-20T22:12:44.602Z,12.20
2019-05-20T22:15:14.464Z,12.20
2019-05-20T22:17:44.062Z,12.20
2019-05-20T22:20:13.986Z,12.10
2019-05-20T22:22:51.145Z,12.10
2019-05-20T22:25:20.770Z,12.00
2019-05-20T22:27:50.361Z,11.90
2019-05-20T22:30:20.193Z,11.90
2019-05-20T22:32:49.789Z,11.90
2019-05-20T22:35:19.412Z,11.90
2019-05-20T22:37:49.011Z,11.80
2019-05-20T22:40:18.773Z,11.70
2019-05-20T22:42:48.371Z,11.70
2019-05-20T22:45:17.992Z,11.80
2019-05-20T22:47:47.588Z,11.80
2019-05-20T22:50:17.210Z,11.90
2019-05-20T22:52:46.818Z,12.00
2019-05-20T22:55:16.580Z,12.10
2019-05-20T22:57:46.176Z,12.20
2019-05-20T23:00:16.680Z,12.30
2019-05-20T23:02:46.299Z,12.40
2019-05-20T23:05:16.022Z,12.40
2019-05-20T23:07:45.652Z,12.50
2019-05-20T23:10:16.466Z,12.50
2019-05-20T23:12:46.091Z,12.50
2019-05-20T23:15:15.772Z,12.40
2019-05-20T23:17:45.416Z,12.30
2019-05-20T23:20:15.303Z,12.20
2019-05-20T23:22:44.907Z,12.10
2019-05-20T23:25:14.536Z,12.00
2019-05-20T23:27:44.152Z,12.00
2019-05-20T23:30:14.483Z,12.00
2019-05-20T23:32:44.087Z,12.00
2019-05-20T23:35:14.314Z,12.10
2019-05-20T23:37:43.911Z,12.20
2019-05-20T23:40:13.672Z,12.20
2019-05-20T23:42:43.323Z,12.10
2019-05-20T23:45:14.555Z,12.10
2019-05-20T23:47:44.172Z,12.20
2019-05-20T23:50:14.042Z,12.20
2019-05-20T23:52:43.647Z,12.10
2019-05-20T23:55:13.854Z,12.10
2019-05-20T23:57:43.468Z,12.10
